DAL25 TISX-TAPA
Flight info
| Callsign | DAL25 |
|---|---|
| Flight time | 0h 35m |
| Altitude | 21000 |
| Route | HMLTN9 COY G633 ANU |
| Aircraft | A319/M-SDE3FGHIRWY/LB1 |
Departure
| Time | 2026-05-05 00:09 |
|---|---|
| Airport | Henry E. Rohlsen Airport (TISX) |
Arrival
| Time | 2026-05-05 00:45 |
|---|---|
| Airport | V. C. Bird International Airport (TAPA) |
| Time | Latitude | Longitude | Altitude | Speed | Heading |
|---|---|---|---|---|---|
| 2026-05-04 23:44 | 17.69964 | -64.79737 | 38 ft | 0 kts | 89° |
| 2026-05-05 00:00 | 17.69965 | -64.79729 | 38 ft | 3 kts | 79° |
| 2026-05-05 00:00 | 17.69970 | -64.79723 | 37 ft | 3 kts | 49° |
| 2026-05-05 00:00 | 17.69999 | -64.79716 | 37 ft | 3 kts | 357° |
| 2026-05-05 00:00 | 17.70000 | -64.79716 | 37 ft | 0 kts | 357° |
| 2026-05-05 00:01 | 17.70001 | -64.79716 | 37 ft | 1 kts | 357° |
| 2026-05-05 00:01 | 17.70023 | -64.79723 | 38 ft | 6 kts | 328° |
| 2026-05-05 00:02 | 17.70050 | -64.79778 | 38 ft | 12 kts | 274° |
| 2026-05-05 00:02 | 17.70045 | -64.79887 | 40 ft | 18 kts | 266° |
| 2026-05-05 00:02 | 17.70033 | -64.80026 | 41 ft | 19 kts | 263° |
| 2026-05-05 00:02 | 17.70019 | -64.80162 | 44 ft | 18 kts | 264° |
| 2026-05-05 00:03 | 17.70005 | -64.80294 | 47 ft | 18 kts | 264° |
| 2026-05-05 00:03 | 17.69992 | -64.80421 | 49 ft | 17 kts | 264° |
| 2026-05-05 00:03 | 17.69980 | -64.80545 | 51 ft | 17 kts | 264° |
| 2026-05-05 00:03 | 17.69969 | -64.80663 | 54 ft | 16 kts | 264° |
| 2026-05-05 00:04 | 17.69957 | -64.80776 | 56 ft | 15 kts | 264° |
| 2026-05-05 00:04 | 17.69947 | -64.80875 | 51 ft | 12 kts | 266° |
| 2026-05-05 00:04 | 17.69991 | -64.80918 | 59 ft | 0 kts | 353° |
| 2026-05-05 00:05 | 17.70008 | -64.80920 | 54 ft | 4 kts | 353° |
| 2026-05-05 00:06 | 17.70037 | -64.80923 | 59 ft | 5 kts | 355° |
| 2026-05-05 00:06 | 17.70076 | -64.80922 | 57 ft | 6 kts | 28° |
| 2026-05-05 00:06 | 17.70083 | -64.80905 | 59 ft | 0 kts | 80° |
| 2026-05-05 00:08 | 17.70088 | -64.80874 | 53 ft | 16 kts | 81° |
| 2026-05-05 00:09 | 17.70110 | -64.80667 | 54 ft | 69 kts | 84° |
| 2026-05-05 00:09 | 17.70183 | -64.79916 | 39 ft | 135 kts | 84° |
| 2026-05-05 00:09 | 17.70282 | -64.78818 | 369 ft | 156 kts | 87° |
| 2026-05-05 00:09 | 17.70163 | -64.77681 | 942 ft | 157 kts | 98° |
| 2026-05-05 00:10 | 17.70482 | -64.76590 | 1640 ft | 160 kts | 66° |
| 2026-05-05 00:10 | 17.70967 | -64.75551 | 2247 ft | 165 kts | 70° |
| 2026-05-05 00:10 | 17.71478 | -64.74387 | 2611 ft | 187 kts | 69° |
| 2026-05-05 00:10 | 17.72066 | -64.73075 | 2933 ft | 210 kts | 68° |
| 2026-05-05 00:11 | 17.72715 | -64.71637 | 3352 ft | 226 kts | 69° |
| 2026-05-05 00:11 | 17.73097 | -64.70036 | 4129 ft | 227 kts | 86° |
| 2026-05-05 00:11 | 17.73067 | -64.68380 | 4974 ft | 229 kts | 99° |
| 2026-05-05 00:11 | 17.72718 | -64.66730 | 5777 ft | 233 kts | 104° |
| 2026-05-05 00:12 | 17.72344 | -64.65063 | 6689 ft | 236 kts | 104° |
| 2026-05-05 00:12 | 17.71971 | -64.63375 | 7539 ft | 239 kts | 104° |
| 2026-05-05 00:12 | 17.71592 | -64.61657 | 8328 ft | 244 kts | 104° |
| 2026-05-05 00:12 | 17.71205 | -64.59904 | 9080 ft | 249 kts | 104° |
| 2026-05-05 00:13 | 17.70810 | -64.58110 | 9794 ft | 255 kts | 104° |
| 2026-05-05 00:13 | 17.70409 | -64.56278 | 10464 ft | 260 kts | 104° |
| 2026-05-05 00:13 | 17.70001 | -64.54416 | 11158 ft | 263 kts | 104° |
| 2026-05-05 00:13 | 17.69587 | -64.52534 | 11849 ft | 266 kts | 104° |
| 2026-05-05 00:14 | 17.69171 | -64.50656 | 12527 ft | 270 kts | 104° |
| 2026-05-05 00:14 | 17.68740 | -64.48706 | 13221 ft | 273 kts | 104° |
| 2026-05-05 00:14 | 17.68314 | -64.46784 | 13906 ft | 275 kts | 104° |
| 2026-05-05 00:14 | 17.67880 | -64.44815 | 14523 ft | 278 kts | 103° |
| 2026-05-05 00:15 | 17.67438 | -64.42824 | 15093 ft | 283 kts | 103° |
| 2026-05-05 00:15 | 17.66990 | -64.40801 | 15654 ft | 287 kts | 103° |
| 2026-05-05 00:15 | 17.66535 | -64.38742 | 16215 ft | 292 kts | 102° |
| 2026-05-05 00:15 | 17.66074 | -64.36651 | 16757 ft | 298 kts | 102° |
| 2026-05-05 00:16 | 17.65603 | -64.34520 | 17313 ft | 302 kts | 102° |
| 2026-05-05 00:16 | 17.65124 | -64.32358 | 17904 ft | 306 kts | 102° |
| 2026-05-05 00:16 | 17.64641 | -64.30171 | 18493 ft | 309 kts | 102° |
| 2026-05-05 00:16 | 17.64162 | -64.27993 | 19000 ft | 311 kts | 102° |
| 2026-05-05 00:17 | 17.63672 | -64.25767 | 19512 ft | 315 kts | 102° |
| 2026-05-05 00:17 | 17.63171 | -64.23500 | 19802 ft | 328 kts | 102° |
| 2026-05-05 00:17 | 17.62641 | -64.21104 | 19929 ft | 346 kts | 103° |
| 2026-05-05 00:17 | 17.62081 | -64.18584 | 20048 ft | 363 kts | 103° |
| 2026-05-05 00:18 | 17.61495 | -64.15946 | 20173 ft | 380 kts | 103° |
| 2026-05-05 00:18 | 17.60884 | -64.13209 | 20446 ft | 390 kts | 103° |
| 2026-05-05 00:18 | 17.60262 | -64.10427 | 20895 ft | 393 kts | 103° |
| 2026-05-05 00:18 | 17.59639 | -64.07639 | 21046 ft | 392 kts | 103° |
| 2026-05-05 00:19 | 17.59029 | -64.04908 | 21083 ft | 376 kts | 103° |
| 2026-05-05 00:19 | 17.58443 | -64.02286 | 21081 ft | 366 kts | 103° |
| 2026-05-05 00:19 | 17.57867 | -63.99705 | 21083 ft | 363 kts | 103° |
| 2026-05-05 00:19 | 17.57293 | -63.97134 | 21076 ft | 362 kts | 103° |
| 2026-05-05 00:20 | 17.56721 | -63.94570 | 21081 ft | 361 kts | 103° |
| 2026-05-05 00:20 | 17.56150 | -63.92004 | 21082 ft | 361 kts | 103° |
| 2026-05-05 00:20 | 17.55578 | -63.89441 | 21084 ft | 361 kts | 103° |
| 2026-05-05 00:20 | 17.55004 | -63.86876 | 21079 ft | 361 kts | 103° |
| 2026-05-05 00:21 | 17.54431 | -63.84318 | 21073 ft | 361 kts | 103° |
| 2026-05-05 00:21 | 17.53855 | -63.81753 | 21075 ft | 361 kts | 103° |
| 2026-05-05 00:21 | 17.53280 | -63.79183 | 21075 ft | 362 kts | 103° |
| 2026-05-05 00:21 | 17.52704 | -63.76613 | 21077 ft | 362 kts | 103° |
| 2026-05-05 00:22 | 17.52130 | -63.74046 | 21072 ft | 362 kts | 103° |
| 2026-05-05 00:22 | 17.51552 | -63.71478 | 21073 ft | 362 kts | 103° |
| 2026-05-05 00:22 | 17.50974 | -63.68914 | 21079 ft | 361 kts | 103° |
| 2026-05-05 00:22 | 17.50394 | -63.66351 | 21085 ft | 361 kts | 103° |
| 2026-05-05 00:23 | 17.49816 | -63.63793 | 21083 ft | 361 kts | 103° |
| 2026-05-05 00:23 | 17.49237 | -63.61235 | 21081 ft | 361 kts | 103° |
| 2026-05-05 00:23 | 17.48658 | -63.58676 | 21079 ft | 361 kts | 103° |
| 2026-05-05 00:23 | 17.48088 | -63.56151 | 21082 ft | 361 kts | 103° |
| 2026-05-05 00:24 | 17.47511 | -63.53590 | 21083 ft | 361 kts | 103° |
| 2026-05-05 00:24 | 17.46935 | -63.51027 | 21082 ft | 361 kts | 103° |
| 2026-05-05 00:24 | 17.46360 | -63.48470 | 21078 ft | 361 kts | 103° |
| 2026-05-05 00:24 | 17.45783 | -63.45913 | 21077 ft | 361 kts | 103° |
| 2026-05-05 00:25 | 17.45202 | -63.43358 | 21077 ft | 361 kts | 103° |
| 2026-05-05 00:25 | 17.44619 | -63.40801 | 21081 ft | 360 kts | 103° |
| 2026-05-05 00:25 | 17.44038 | -63.38246 | 21078 ft | 360 kts | 103° |
| 2026-05-05 00:25 | 17.43457 | -63.35690 | 21075 ft | 360 kts | 103° |
| 2026-05-05 00:26 | 17.42880 | -63.33141 | 21080 ft | 360 kts | 103° |
| 2026-05-05 00:26 | 17.42304 | -63.30595 | 21081 ft | 360 kts | 103° |
| 2026-05-05 00:26 | 17.41733 | -63.28074 | 21082 ft | 360 kts | 103° |
| 2026-05-05 00:26 | 17.41153 | -63.25526 | 21085 ft | 359 kts | 103° |
| 2026-05-05 00:27 | 17.40572 | -63.22983 | 21081 ft | 359 kts | 103° |
| 2026-05-05 00:27 | 17.39990 | -63.20440 | 21081 ft | 359 kts | 103° |
| 2026-05-05 00:27 | 17.39411 | -63.17895 | 21082 ft | 359 kts | 103° |
| 2026-05-05 00:27 | 17.38833 | -63.15352 | 21088 ft | 359 kts | 103° |
| 2026-05-05 00:28 | 17.38254 | -63.12808 | 21089 ft | 359 kts | 103° |
| 2026-05-05 00:28 | 17.37673 | -63.10265 | 21087 ft | 359 kts | 103° |
| 2026-05-05 00:28 | 17.37093 | -63.07719 | 21089 ft | 359 kts | 103° |
| 2026-05-05 00:28 | 17.36516 | -63.05180 | 21092 ft | 359 kts | 103° |
| 2026-05-05 00:29 | 17.35938 | -63.02641 | 21094 ft | 359 kts | 103° |
| 2026-05-05 00:29 | 17.35356 | -63.00100 | 21094 ft | 359 kts | 103° |
| 2026-05-05 00:29 | 17.34776 | -62.97562 | 21093 ft | 359 kts | 103° |
| 2026-05-05 00:29 | 17.34202 | -62.95022 | 21093 ft | 358 kts | 103° |
| 2026-05-05 00:30 | 17.33630 | -62.92482 | 21090 ft | 358 kts | 103° |
| 2026-05-05 00:30 | 17.33056 | -62.89941 | 21087 ft | 358 kts | 103° |
| 2026-05-05 00:30 | 17.32479 | -62.87405 | 21086 ft | 358 kts | 103° |
| 2026-05-05 00:30 | 17.31900 | -62.84868 | 21086 ft | 358 kts | 103° |
| 2026-05-05 00:31 | 17.31324 | -62.82341 | 20693 ft | 357 kts | 103° |
| 2026-05-05 00:31 | 17.30748 | -62.79817 | 20230 ft | 356 kts | 103° |
| 2026-05-05 00:31 | 17.30180 | -62.77332 | 19809 ft | 355 kts | 103° |
| 2026-05-05 00:31 | 17.29605 | -62.74824 | 19376 ft | 354 kts | 103° |
| 2026-05-05 00:32 | 17.28841 | -62.72375 | 18945 ft | 353 kts | 108° |
| 2026-05-05 00:32 | 17.28037 | -62.69962 | 18537 ft | 350 kts | 108° |
| 2026-05-05 00:32 | 17.27239 | -62.67557 | 18088 ft | 348 kts | 108° |
| 2026-05-05 00:32 | 17.26450 | -62.65182 | 17677 ft | 344 kts | 108° |
| 2026-05-05 00:33 | 17.25670 | -62.62826 | 17288 ft | 341 kts | 108° |
| 2026-05-05 00:33 | 17.24898 | -62.60490 | 16899 ft | 339 kts | 108° |
| 2026-05-05 00:33 | 17.24130 | -62.58169 | 16511 ft | 336 kts | 108° |
| 2026-05-05 00:33 | 17.23367 | -62.55865 | 16129 ft | 334 kts | 108° |
| 2026-05-05 00:34 | 17.22609 | -62.53576 | 15746 ft | 332 kts | 108° |
| 2026-05-05 00:34 | 17.21856 | -62.51303 | 15368 ft | 329 kts | 109° |
| 2026-05-05 00:34 | 17.21110 | -62.49056 | 15000 ft | 325 kts | 109° |
| 2026-05-05 00:34 | 17.20373 | -62.46837 | 14623 ft | 321 kts | 109° |
| 2026-05-05 00:35 | 17.19643 | -62.44648 | 14258 ft | 316 kts | 109° |
| 2026-05-05 00:35 | 17.18921 | -62.42488 | 13890 ft | 311 kts | 109° |
| 2026-05-05 00:35 | 17.18212 | -62.40368 | 13492 ft | 306 kts | 109° |
| 2026-05-05 00:35 | 17.17516 | -62.38283 | 13132 ft | 301 kts | 109° |
| 2026-05-05 00:36 | 17.16843 | -62.36260 | 12774 ft | 297 kts | 109° |
| 2026-05-05 00:36 | 17.16166 | -62.34233 | 12415 ft | 294 kts | 109° |
| 2026-05-05 00:36 | 17.15494 | -62.32219 | 12060 ft | 293 kts | 109° |
| 2026-05-05 00:36 | 17.14823 | -62.30208 | 11684 ft | 293 kts | 109° |
| 2026-05-05 00:37 | 17.14151 | -62.28197 | 11318 ft | 293 kts | 109° |
| 2026-05-05 00:37 | 17.13480 | -62.26190 | 10943 ft | 293 kts | 109° |
| 2026-05-05 00:37 | 17.12809 | -62.24178 | 10557 ft | 293 kts | 109° |
| 2026-05-05 00:37 | 17.12136 | -62.22164 | 10184 ft | 293 kts | 109° |
| 2026-05-05 00:38 | 17.11461 | -62.20146 | 9765 ft | 294 kts | 109° |
| 2026-05-05 00:38 | 17.10788 | -62.18134 | 9350 ft | 293 kts | 109° |
| 2026-05-05 00:38 | 17.10114 | -62.16123 | 8955 ft | 291 kts | 109° |
| 2026-05-05 00:38 | 17.09447 | -62.14129 | 8543 ft | 290 kts | 109° |
| 2026-05-05 00:39 | 17.08787 | -62.12155 | 8125 ft | 283 kts | 110° |
| 2026-05-05 00:39 | 17.08146 | -62.10245 | 7678 ft | 274 kts | 110° |
| 2026-05-05 00:39 | 17.07525 | -62.08394 | 7251 ft | 265 kts | 110° |
| 2026-05-05 00:39 | 17.06926 | -62.06605 | 6860 ft | 256 kts | 110° |
| 2026-05-05 00:40 | 17.06347 | -62.04873 | 6476 ft | 248 kts | 110° |
| 2026-05-05 00:40 | 17.05787 | -62.03202 | 6075 ft | 240 kts | 110° |
| 2026-05-05 00:40 | 17.05245 | -62.01588 | 5701 ft | 231 kts | 109° |
| 2026-05-05 00:40 | 17.04721 | -62.00025 | 5344 ft | 224 kts | 109° |
| 2026-05-05 00:41 | 17.04210 | -61.98504 | 4995 ft | 219 kts | 109° |
| 2026-05-05 00:41 | 17.03796 | -61.97018 | 4637 ft | 212 kts | 94° |
| 2026-05-05 00:41 | 17.04056 | -61.95531 | 4302 ft | 212 kts | 65° |
| 2026-05-05 00:41 | 17.04829 | -61.94198 | 3951 ft | 216 kts | 60° |
| 2026-05-05 00:42 | 17.05627 | -61.92856 | 3584 ft | 219 kts | 61° |
| 2026-05-05 00:42 | 17.06434 | -61.91494 | 3202 ft | 221 kts | 61° |
| 2026-05-05 00:42 | 17.07241 | -61.90132 | 2822 ft | 218 kts | 60° |
| 2026-05-05 00:42 | 17.08027 | -61.88811 | 2457 ft | 211 kts | 61° |
| 2026-05-05 00:43 | 17.08789 | -61.87528 | 2109 ft | 204 kts | 62° |
| 2026-05-05 00:43 | 17.09512 | -61.86310 | 1806 ft | 193 kts | 61° |
| 2026-05-05 00:43 | 17.10196 | -61.85154 | 1464 ft | 180 kts | 61° |
| 2026-05-05 00:43 | 17.10827 | -61.84094 | 1192 ft | 164 kts | 62° |
| 2026-05-05 00:44 | 17.11413 | -61.83107 | 923 ft | 155 kts | 60° |
| 2026-05-05 00:44 | 17.11967 | -61.82170 | 662 ft | 148 kts | 61° |
| 2026-05-05 00:44 | 17.12496 | -61.81250 | 397 ft | 148 kts | 62° |
| 2026-05-05 00:44 | 17.13039 | -61.80331 | 117 ft | 147 kts | 60° |
| 2026-05-05 00:45 | 17.13538 | -61.79487 | 58 ft | 120 kts | 57° |
| 2026-05-05 00:45 | 17.13890 | -61.78903 | 47 ft | 70 kts | 58° |
| 2026-05-05 00:45 | 17.14051 | -61.78641 | 46 ft | 12 kts | 28° |
| 2026-05-05 00:45 | 17.14105 | -61.78686 | 46 ft | 10 kts | 277° |
| 2026-05-05 00:46 | 17.14107 | -61.78758 | 47 ft | 10 kts | 272° |
| 2026-05-05 00:46 | 17.14111 | -61.78828 | 48 ft | 9 kts | 274° |
| 2026-05-05 00:46 | 17.14090 | -61.78889 | 49 ft | 9 kts | 239° |
| 2026-05-05 00:46 | 17.14057 | -61.78944 | 50 ft | 9 kts | 237° |
| 2026-05-05 00:47 | 17.14051 | -61.79001 | 50 ft | 7 kts | 317° |
| 2026-05-05 00:47 | 17.14098 | -61.79032 | 49 ft | 8 kts | 329° |
| 2026-05-05 00:47 | 17.14115 | -61.79043 | 50 ft | 0 kts | 327° |